Dallas, OR (97338)

8:04 AM PDT on September 02, 2015 (GMT -0700)
City View | | Change Station
CLOSE
Current Station
Personal Weather Station
Location: Dallas, OR
Elevation: 435 ft
Nearby Weather Stations

Elev 435 ft 44.92 °N, 123.33 °W | Updated 1 second ago

Overcast
Overcast
57.0 °F
Feels Like 57.0 °F
N
1.0
Wind Variable Wind from SSW
Gusts 3.0 mph

Today
High -- | Low -- °F
--% Chance of Precip.
Yesterday
High -- | Low -- °F
Precip. -- in
6:36 AM 7:48 PM
Waning Gibbous, 79% visible
Pressure 29.93 in
Visibility 10.0 miles
Clouds Few 3300 ft
Few 4200 ft
Overcast 7500 ft
Dew Point 49 °F
Humidity 75%
Rainfall 0.00 in
Snow Depth Not available.
UV 0 out of 12
Pollen .50 out of 12
Air Quality Not available.
Flu Activity Not available.
METAR KSLE 021456Z 22007KT 10SM FEW033 FEW042 OVC075 16/12 A2993 RMK AO2 SLP133 T01610122 53013
Pressure 29.93 in
Visibility 10.0 miles
Clouds Few 3300 ft
Few 4200 ft
Overcast 7500 ft
Dew Point 49 °F
Humidity 75%
Rainfall 0.00 in
Snow Depth Not available.
UV 0 out of 12
Pollen .50 out of 12
Air Quality Not available.
Flu Activity Not available.
METAR KSLE 021456Z 22007KT 10SM FEW033 FEW042 OVC075 16/12 A2993 RMK AO2 SLP133 T01610122 53013

10-Day Weather Forecast

×

Almanac

Astronomy

Sep. 02, 2015 Rise Set
Actual Time
Civil Twilight
Nautical Twilight
Astronomical Twilight
Moon
Length of Visible Light
Length of Day
Tomorrow will be .
, % of the Moon is Illuminated

Today's Extremes

State Highs State Lows

Community

WunderPhotos

Upload Photos

1,851,769 photos uploaded!

WunderBlogs® & News

Nearby

Air Quality

  Air Quality AQ Index Pollutant
Not available.

Snow Depth

Station Depth Elevation

Earthquake Activity

City Distance Mag. Time & Date
Minimum magnitude displayed is 2.5.

Coastal Water Temperatures

Place Temperature

Stations

Nearby Weather Stations

Station Location Temp. Windchill Dew Point Humidity Wind Precip. Elev Updated Type